Flight Track Log - Related Links

Times and Time Zones

All times are in EDT time to prevent confusion due to time zone crossing. See the N860BA flight status page for this flight to view local times or setup timezone preferences in your user account.

Time Position Orientation Groundspeed Altitude Reporting Facility
EDT Latitude Longitude Course Direction KTS MPH feet Rate Location/Type
Wed 07:11:38 PM 36.7911 -119.7447 294° West 151 174 900  Level Oakland Center
Wed 07:12:40 PM 36.8125 -119.8056 294° West 212 244 3,000 2,195 Climbing Oakland Center
Wed 07:13:41 PM 36.7528 -119.7981 174° South 246 283 5,400 2,439 Climbing Oakland Center
Wed 07:14:43 PM 36.6917 -119.7428 144° Southeast 271 312 8,000 2,585 Climbing Oakland Center
Wed 07:15:44 PM 36.6278 -119.6858 144° Southeast 279 321 10,700 2,732 Climbing Oakland Center
Wed 07:16:46 PM 36.5367 -119.6331 155° Southeast 305 351 13,600 2,390 Climbing Oakland Center
Wed 07:17:47 PM 36.4539 -119.5906 158° South 318 366 15,600 1,951 Climbing Oakland Center
Wed 07:18:49 PM 36.3631 -119.5433 157° South 349 402 17,600 2,000 Climbing Oakland Center
Wed 07:19:50 PM 36.2719 -119.4975 158° South 353 406 19,700 1,869 Climbing Oakland Center
Wed 07:20:51 PM 36.1753 -119.4489 158° South 364 419 21,400 1,659 Climbing Oakland Center
Wed 07:21:53 PM 36.0756 -119.3972 157° South 378 435 23,100 1,659 Climbing Oakland Center
Wed 07:22:54 PM 35.9731 -119.3444 157° South 390 449 24,800 1,659 Climbing Oakland Center
Wed 07:23:56 PM 35.8706 -119.2922 158° South 395 455 26,500 1,419 Climbing Oakland Center
Wed 07:24:27 PM 35.8264 -119.2694 157° South 402 463 27,000 319 Climbing Los Angeles Center
Wed 07:25:30 PM 35.6953 -119.2025 157° South 421 484 27,000  Level Los Angeles Center
Wed 07:26:32 PM 35.5733 -119.1408 158° South 460 529 27,000  Level Los Angeles Center
Wed 07:27:34 PM 35.4739 -119.0900 157° South 475 547 27,000  Level Los Angeles Center
Wed 07:28:36 PM 35.2881 -119.0100 161° South 500 575 27,000  Level Los Angeles Center
Wed 07:29:38 PM 35.1567 -118.9528 160° South 500 575 27,000  Level Los Angeles Center
Wed 07:30:40 PM 35.0239 -118.8958 161° South 502 578 27,000  Level Los Angeles Center
Wed 07:31:43 PM 34.9000 -118.8433 161° South 496 571 27,000  Level Los Angeles Center
Wed 07:32:45 PM 34.7719 -118.7878 160° South 492 566 27,000  Level Los Angeles Center
Wed 07:33:47 PM 34.6153 -118.7225 161° South 494 568 27,000  Level Los Angeles Center
Wed 07:34:49 PM 34.4897 -118.6681 160° South 484 557 27,000  Level Los Angeles Center
Wed 07:35:51 PM 34.3622 -118.6133 160° South 484 557 27,000  Level Los Angeles Center
Wed 07:36:53 PM 34.2358 -118.5606 161° South 481 554 27,000  Level Los Angeles Center
Wed 07:37:55 PM 34.1164 -118.4894 154° Southeast 491 565 27,000  Level Los Angeles Center
Wed 07:38:58 PM 34.0144 -118.3819 139° Southeast 487 560 27,000  Level Los Angeles Center
Wed 07:40:00 PM 33.8903 -118.2503 139° Southeast 488 562 27,000 -435 Level Los Angeles Center
Wed 07:41:02 PM 33.7867 -118.1392 138° Southeast 487 560 26,100 -871 Descending Los Angeles Center
Wed 07:42:04 PM 33.6856 -118.0336 139° Southeast 478 550 25,200 -871 Descending Los Angeles Center
Wed 07:43:06 PM 33.5847 -117.9294 139° Southeast 475 547 24,300 -919 Descending Los Angeles Center
Wed 07:44:08 PM 33.4853 -117.8275 139° Southeast 470 541 23,300 -1,161 Descending Los Angeles Center
Wed 07:45:10 PM 33.3878 -117.7261 139° Southeast 464 534 21,900 -1,403 Descending Los Angeles Center
Wed 07:46:12 PM 33.2911 -117.6267 139° Southeast 457 526 20,400 -1,800 Descending Los Angeles Center
Wed 07:46:50 PM 33.2167 -117.5500 139° Southeast 452 520 18,900 -2,265 Descending Southern California TRACON
Wed 07:47:50 PM 33.1333 -117.4667 140° Southeast 434 499 16,700 -2,450 Descending Southern California TRACON
Wed 07:48:50 PM 33.0333 -117.3833 145° Southeast 392 451 14,000 -2,800 Descending Southern California TRACON
Wed 07:49:50 PM 32.9500 -117.3167 146° Southeast 368 423 11,100 -2,817 Descending Southern California TRACON
Wed 07:50:45 PM 32.8833 -117.2667 148° Southeast 298 343 8,600 -2,065 Descending Southern California TRACON
Wed 07:51:23 PM 32.8481 -117.2444 152° Southeast 290 334 7,900 -1,380 Descending Los Angeles Center
Wed 07:52:25 PM 32.7986 -117.1828 134° Southeast 265 305 6,300 -968 Descending Los Angeles Center
Wed 07:53:27 PM 32.7806 -117.0936 104° East 245 282 5,900 -194 Descending Los Angeles Center
Wed 07:54:29 PM 32.7675 -117.0231 102° East 227 261 5,900 -192 Level Los Angeles Center
Wed 07:55:32 PM 32.7536 -116.9542 103° East 217 250 5,500 -432 Descending Los Angeles Center
Wed 07:56:34 PM 32.7169 -116.9114 136° Southeast 212 244 5,000 -919 Descending Los Angeles Center
Wed 07:57:36 PM 32.6842 -116.9783 240° Southwest 236 272 3,600 -581 Descending Los Angeles Center
Wed 07:58:38 PM 32.6986 -117.0450 284° West 212 244 3,800 629 Climbing Los Angeles Center
Wed 07:59:40 PM 32.7600 -117.0494 357° North 244 281 4,900 563 Climbing Los Angeles Center
Wed 08:00:46 PM 32.7833 -116.9833 67° East 189 217 5,000 45 Climbing Southern California TRACON
Wed 08:01:52 PM 32.7667 -116.9167 107° East 194 223 5,000 -50 Level Southern California TRACON
Wed 08:02:46 PM 32.7525 -116.8731 111° Southeast 192 221 4,900 -52 Descending Los Angeles Center
Wed 08:03:48 PM 32.7144 -116.8247 133° Southeast 191 220 4,900  Level Los Angeles Center
Wed 08:04:51 PM 32.6653 -116.8417 196° South 187 215 4,900 51 Level Los Angeles Center
Wed 08:05:46 PM 32.6333 -116.8833 228° Southwest 211 243 5,000 -52 Climbing Southern California TRACON
Wed 08:06:46 PM 32.6667 -116.9333 308° West 184 212 4,800 -700 Descending Southern California TRACON
Wed 08:07:46 PM 32.6833 -116.9833 292° West 157 181 3,600 -900 Descending Southern California TRACON
Wed 08:08:46 PM 32.7000 -117.0167 301° West 143 165 3,000 -700 Descending Southern California TRACON
Wed 08:09:46 PM 32.7000 -117.0667 270° West 133 153 2,200 -843 Descending Southern California TRACON
Wed 08:10:47 PM 32.7167 -117.1000 301° West 127 146 1,300 -694 Descending Southern California TRACON
Wed 08:11:47 PM 32.7167 -117.1500 270° West 121 139 800 -524 Descending Southern California TRACON
Wed 08:12:30 PM 32.7281 -117.1678 307° West 127 146 400 -558 Descending Los Angeles Center

Login

Don't have an account? Register now (free) for customized features, flight alerts, and more!